createdAt,value
2023-01-26T00:01:19.127Z,16.35
2023-01-26T00:03:46.223Z,15.45
2023-01-26T00:06:15.373Z,16.35
2023-01-26T00:08:47.301Z,19.98
2023-01-26T00:11:18.450Z,19.17
2023-01-26T00:13:45.610Z,16.13
2023-01-26T00:16:14.507Z,16.55
2023-01-26T00:18:42.201Z,15.38
2023-01-26T00:21:14.033Z,20.52
2023-01-26T00:23:41.052Z,18.70
2023-01-26T00:26:09.706Z,18.48
2023-01-26T00:28:38.156Z,22.75
2023-01-26T00:31:07.117Z,17.30
2023-01-26T00:33:34.425Z,21.50
2023-01-26T00:36:01.333Z,15.23
2023-01-26T00:38:28.184Z,20.45
2023-01-26T00:40:55.086Z,16.60
2023-01-26T00:43:21.930Z,17.35
2023-01-26T00:45:51.588Z,18.92
2023-01-26T00:48:19.934Z,17.40
2023-01-26T00:50:46.831Z,18.13
2023-01-26T00:53:13.707Z,17.42
2023-01-26T00:55:40.491Z,16.85
2023-01-26T00:58:08.443Z,15.32
2023-01-26T01:00:37.438Z,16.88
2023-01-26T01:03:05.744Z,20.30
2023-01-26T01:05:33.640Z,20.02
2023-01-26T01:08:00.531Z,17.42
2023-01-26T01:10:27.679Z,20.35
2023-01-26T01:12:56.704Z,16.80
2023-01-26T01:15:24.765Z,13.98
2023-01-26T01:17:51.916Z,19.83
2023-01-26T01:20:18.886Z,16.38
2023-01-26T01:22:46.806Z,16.35
2023-01-26T01:25:13.847Z,17.00
2023-01-26T01:27:40.644Z,18.63
2023-01-26T01:30:08.596Z,17.17
2023-01-26T01:32:42.001Z,17.52
2023-01-26T01:35:09.178Z,15.60
2023-01-26T01:37:36.886Z,17.55
2023-01-26T01:40:04.166Z,16.02
2023-01-26T01:42:33.028Z,15.80
2023-01-26T01:45:28.373Z,20.50
2023-01-26T01:48:01.927Z,14.50
2023-01-26T01:50:33.356Z,15.88
2023-01-26T01:53:00.222Z,16.30
2023-01-26T01:55:27.211Z,15.48
2023-01-26T01:58:00.156Z,19.60
2023-01-26T02:00:27.344Z,17.35
2023-01-26T02:03:21.290Z,17.52
2023-01-26T02:05:54.234Z,15.88
2023-01-26T02:08:26.499Z,19.42
2023-01-26T02:10:56.871Z,17.33
2023-01-26T02:13:25.132Z,16.73
2023-01-26T02:15:52.642Z,17.25
2023-01-26T02:18:19.657Z,15.85
2023-01-26T02:20:57.571Z,16.27
2023-01-26T02:23:32.393Z,17.13
2023-01-26T02:26:15.267Z,16.13
2023-01-26T02:28:43.932Z,15.85
2023-01-26T02:31:12.110Z,12.90
2023-01-26T02:33:39.745Z,15.73
2023-01-26T02:36:08.588Z,16.60
2023-01-26T02:38:51.213Z,17.85
2023-01-26T02:41:38.413Z,15.38
2023-01-26T02:44:08.745Z,17.05
2023-01-26T02:46:35.730Z,14.15
2023-01-26T02:49:21.686Z,13.80
2023-01-26T02:51:48.589Z,15.60
2023-01-26T02:54:36.000Z,16.27
2023-01-26T02:57:03.812Z,16.17
2023-01-26T02:59:30.605Z,13.57
2023-01-26T03:01:58.321Z,12.90
2023-01-26T03:04:25.585Z,16.38
2023-01-26T03:06:52.941Z,13.85
2023-01-26T03:09:19.766Z,15.45
2023-01-26T03:11:47.871Z,13.48
2023-01-26T03:14:16.844Z,15.02
2023-01-26T03:16:44.311Z,12.82
2023-01-26T03:19:31.926Z,11.40
2023-01-26T03:22:17.764Z,11.52
2023-01-26T03:25:03.149Z,11.93
2023-01-26T03:27:38.527Z,14.37
2023-01-26T03:30:06.257Z,12.07
2023-01-26T03:32:33.080Z,10.30
2023-01-26T03:35:01.195Z,10.25
2023-01-26T03:37:28.078Z,11.60
2023-01-26T03:40:19.761Z,11.93
2023-01-26T03:43:05.169Z,10.45
2023-01-26T03:45:50.512Z,10.77
2023-01-26T03:48:37.513Z,11.63
2023-01-26T03:51:24.212Z,11.75
2023-01-26T03:54:09.917Z,9.68
2023-01-26T03:56:36.711Z,9.27
2023-01-26T03:59:09.046Z,8.38
2023-01-26T04:01:41.141Z,10.85
2023-01-26T04:04:27.416Z,9.13
2023-01-26T04:07:13.618Z,10.63
2023-01-26T04:09:45.514Z,9.95
2023-01-26T04:12:14.099Z,8.88
2023-01-26T04:15:20.158Z,10.07
2023-01-26T04:18:06.102Z,7.55
2023-01-26T04:20:51.547Z,8.50
2023-01-26T04:23:19.955Z,12.02
2023-01-26T04:25:48.373Z,9.57
2023-01-26T04:28:15.889Z,9.18
2023-01-26T04:30:43.238Z,10.40
2023-01-26T04:33:11.129Z,9.00
2023-01-26T04:35:37.999Z,10.18
2023-01-26T04:38:04.985Z,9.93
2023-01-26T04:40:31.818Z,11.40
2023-01-26T04:42:58.772Z,13.38
2023-01-26T04:45:25.551Z,9.77
2023-01-26T04:47:53.764Z,11.55
2023-01-26T04:50:20.610Z,10.60
2023-01-26T04:52:47.974Z,11.77
2023-01-26T04:55:15.745Z,12.18
2023-01-26T04:57:43.287Z,10.18
2023-01-26T05:00:12.226Z,9.45
2023-01-26T05:02:40.636Z,11.02
2023-01-26T05:05:09.493Z,10.48
2023-01-26T05:07:36.750Z,10.07
2023-01-26T05:10:04.212Z,12.05
2023-01-26T05:12:51.221Z,12.25
2023-01-26T05:15:41.786Z,7.50
2023-01-26T05:18:13.783Z,10.35
2023-01-26T05:20:55.239Z,12.98
2023-01-26T05:23:25.907Z,11.60
2023-01-26T05:26:05.149Z,10.32
2023-01-26T05:28:41.122Z,8.68
2023-01-26T05:31:08.641Z,13.82
2023-01-26T05:33:35.714Z,8.30
2023-01-26T05:36:07.296Z,10.02
2023-01-26T05:38:34.989Z,8.82
2023-01-26T05:41:01.767Z,8.88
2023-01-26T05:43:32.324Z,13.35
2023-01-26T05:46:10.516Z,11.07
2023-01-26T05:48:40.212Z,8.68
2023-01-26T05:51:07.041Z,9.13
2023-01-26T05:53:36.192Z,9.50
2023-01-26T05:56:03.543Z,9.32
2023-01-26T05:58:33.341Z,9.73
2023-01-26T06:01:04.910Z,9.02
2023-01-26T06:03:39.784Z,10.98
2023-01-26T06:06:07.468Z,7.05
2023-01-26T06:08:41.140Z,9.07
2023-01-26T06:11:26.764Z,7.72
2023-01-26T06:14:05.411Z,6.93
2023-01-26T06:16:32.770Z,8.27
2023-01-26T06:19:00.178Z,8.82
2023-01-26T06:21:27.031Z,7.70
2023-01-26T06:23:54.399Z,7.40
2023-01-26T06:26:21.321Z,8.15
2023-01-26T06:28:48.159Z,8.20
2023-01-26T06:31:15.455Z,7.90
2023-01-26T06:33:43.213Z,6.47
2023-01-26T06:36:14.459Z,6.88
2023-01-26T06:38:47.088Z,10.73
2023-01-26T06:41:14.285Z,8.38
2023-01-26T06:43:48.146Z,8.50
2023-01-26T06:46:16.663Z,9.52
2023-01-26T06:48:45.706Z,8.25
2023-01-26T06:51:19.338Z,8.05
2023-01-26T06:53:54.668Z,6.80
2023-01-26T06:56:28.987Z,8.07
2023-01-26T06:59:00.392Z,9.07
2023-01-26T07:01:49.038Z,8.10
2023-01-26T07:04:17.059Z,8.60
2023-01-26T07:06:44.988Z,7.75
2023-01-26T07:09:11.858Z,7.72
2023-01-26T07:11:38.748Z,8.10
2023-01-26T07:14:06.312Z,7.25
2023-01-26T07:16:33.942Z,7.82
2023-01-26T07:19:01.355Z,7.70
2023-01-26T07:21:28.293Z,6.25
2023-01-26T07:23:56.145Z,8.82
2023-01-26T07:26:23.038Z,9.93
2023-01-26T07:28:49.843Z,9.70
2023-01-26T07:31:16.744Z,9.50
2023-01-26T07:33:44.112Z,6.88
2023-01-26T07:36:11.192Z,8.65
2023-01-26T07:38:38.876Z,12.57
2023-01-26T07:41:11.607Z,11.35
2023-01-26T07:43:38.718Z,8.25
2023-01-26T07:46:10.771Z,10.45
2023-01-26T07:48:37.645Z,8.75
2023-01-26T07:51:05.601Z,11.88
2023-01-26T07:53:34.217Z,7.97
2023-01-26T07:56:12.736Z,9.23
2023-01-26T07:58:40.131Z,9.98
2023-01-26T08:01:08.825Z,9.20
2023-01-26T08:03:36.127Z,9.23
2023-01-26T08:06:03.528Z,10.27
2023-01-26T08:08:30.697Z,9.20
2023-01-26T08:11:00.526Z,8.38
2023-01-26T08:13:35.282Z,6.85
2023-01-26T08:16:12.728Z,8.10
2023-01-26T08:18:41.821Z,7.63
2023-01-26T08:21:09.998Z,8.18
2023-01-26T08:23:37.096Z,12.95
2023-01-26T08:26:06.634Z,7.95
2023-01-26T08:28:33.788Z,7.20
2023-01-26T08:31:11.483Z,8.52
2023-01-26T08:33:39.677Z,7.50
2023-01-26T08:36:10.878Z,9.32
2023-01-26T08:38:37.712Z,8.95
2023-01-26T08:41:05.298Z,9.88
2023-01-26T08:43:32.159Z,9.00
2023-01-26T08:45:59.151Z,7.55
2023-01-26T08:48:26.010Z,9.10
2023-01-26T08:50:57.689Z,7.45
2023-01-26T08:53:25.003Z,9.95
2023-01-26T08:55:52.027Z,8.88
2023-01-26T08:58:20.462Z,6.57
2023-01-26T09:00:47.288Z,13.70
2023-01-26T09:03:14.267Z,9.85
2023-01-26T09:05:41.522Z,10.00
2023-01-26T09:08:09.692Z,9.57
2023-01-26T09:10:39.702Z,7.45
2023-01-26T09:13:06.568Z,7.13
2023-01-26T09:15:33.452Z,7.88
2023-01-26T09:18:01.120Z,16.30
2023-01-26T09:20:28.218Z,8.77
2023-01-26T09:22:55.058Z,8.93
2023-01-26T09:25:22.088Z,9.93
2023-01-26T09:27:48.913Z,8.73
2023-01-26T09:30:16.230Z,11.00
2023-01-26T09:32:43.537Z,10.50
2023-01-26T09:35:14.193Z,9.32
2023-01-26T09:37:43.312Z,9.45
2023-01-26T09:40:19.603Z,10.10
2023-01-26T09:43:05.469Z,8.35
2023-01-26T09:45:46.378Z,7.97
2023-01-26T09:48:36.272Z,8.52
2023-01-26T09:51:34.155Z,8.43
2023-01-26T09:54:41.757Z,7.78
2023-01-26T09:57:17.667Z,11.35
2023-01-26T10:00:09.268Z,9.80
2023-01-26T10:03:05.032Z,9.13
2023-01-26T10:05:57.993Z,10.10
2023-01-26T10:09:19.447Z,8.07
2023-01-26T10:11:54.292Z,6.40
2023-01-26T10:14:44.980Z,6.22
2023-01-26T10:17:31.233Z,7.35
2023-01-26T10:20:07.442Z,6.18
2023-01-26T10:22:50.286Z,6.95
2023-01-26T10:25:29.115Z,4.78
2023-01-26T10:27:55.888Z,5.07
2023-01-26T10:30:22.865Z,5.85
2023-01-26T10:32:52.670Z,5.85
2023-01-26T10:35:24.971Z,5.90
2023-01-26T10:37:53.182Z,5.80
2023-01-26T10:40:21.159Z,5.53
2023-01-26T10:42:59.409Z,7.10
2023-01-26T10:45:31.735Z,6.25
2023-01-26T10:48:17.939Z,6.50
2023-01-26T10:50:46.626Z,6.57
2023-01-26T10:53:19.120Z,5.85
2023-01-26T10:56:11.937Z,7.60
2023-01-26T10:58:44.913Z,4.88
2023-01-26T11:01:15.753Z,6.18
2023-01-26T11:03:56.267Z,6.43
2023-01-26T11:06:28.698Z,5.55
2023-01-26T11:09:09.682Z,7.90
2023-01-26T11:11:36.717Z,5.20
2023-01-26T11:14:18.635Z,5.78
2023-01-26T11:16:56.392Z,5.75
2023-01-26T11:19:38.630Z,5.28
2023-01-26T11:22:13.558Z,5.88
2023-01-26T11:25:38.168Z,5.68
2023-01-26T11:28:25.513Z,5.00
2023-01-26T11:31:40.101Z,6.30
2023-01-26T11:34:38.885Z,9.52
2023-01-26T11:37:43.766Z,6.78
2023-01-26T11:40:26.479Z,6.38
2023-01-26T11:43:14.470Z,6.65
2023-01-26T11:46:05.565Z,6.75
2023-01-26T11:48:50.523Z,7.03
2023-01-26T11:51:49.970Z,6.15
2023-01-26T11:55:06.257Z,6.55
2023-01-26T11:57:36.888Z,6.72
2023-01-26T12:00:28.637Z,5.68
2023-01-26T12:03:03.527Z,5.82
2023-01-26T12:05:42.427Z,6.00
2023-01-26T12:08:45.524Z,10.70
2023-01-26T12:11:25.732Z,7.53
2023-01-26T12:14:17.383Z,5.63
2023-01-26T12:17:19.036Z,6.32
2023-01-26T12:20:05.032Z,5.47
2023-01-26T12:22:34.610Z,10.70
2023-01-26T12:25:33.031Z,7.97
2023-01-26T12:28:25.306Z,6.03
2023-01-26T12:31:18.059Z,6.20
2023-01-26T12:33:46.577Z,6.75
2023-01-26T12:36:26.844Z,6.43
2023-01-26T12:39:13.919Z,5.47
2023-01-26T12:42:05.817Z,4.57
2023-01-26T12:44:43.951Z,6.28
2023-01-26T12:47:46.056Z,9.02
2023-01-26T12:50:20.643Z,6.72
2023-01-26T12:53:16.666Z,5.60
2023-01-26T12:55:49.354Z,6.63
2023-01-26T12:58:37.567Z,4.30
2023-01-26T13:01:12.369Z,5.47
2023-01-26T13:03:43.250Z,5.40
2023-01-26T13:06:10.052Z,6.10
2023-01-26T13:08:36.861Z,6.70
2023-01-26T13:11:06.865Z,6.50
2023-01-26T13:13:56.601Z,6.78
2023-01-26T13:16:23.674Z,6.80
2023-01-26T13:18:55.395Z,10.05
2023-01-26T13:21:44.687Z,7.20
2023-01-26T13:24:17.252Z,7.00
2023-01-26T13:26:51.776Z,8.38
2023-01-26T13:29:28.062Z,7.97
2023-01-26T13:31:55.707Z,7.20
2023-01-26T13:34:28.193Z,7.32
2023-01-26T13:37:05.146Z,8.32
2023-01-26T13:39:36.204Z,9.00
2023-01-26T13:42:15.000Z,7.68
2023-01-26T13:44:47.389Z,9.30
2023-01-26T13:47:26.068Z,8.07
2023-01-26T13:49:52.931Z,7.72
2023-01-26T13:52:23.935Z,7.78
2023-01-26T13:54:52.456Z,11.75
2023-01-26T13:57:25.594Z,9.10
2023-01-26T13:59:54.989Z,9.18
2023-01-26T14:02:35.630Z,9.82
2023-01-26T14:05:03.375Z,7.47
2023-01-26T14:07:38.826Z,7.82
2023-01-26T14:10:07.096Z,7.28
2023-01-26T14:12:41.284Z,8.27
2023-01-26T14:15:19.468Z,6.72
2023-01-26T14:17:52.173Z,8.25
2023-01-26T14:20:32.024Z,6.82
2023-01-26T14:23:10.251Z,7.63
2023-01-26T14:25:39.841Z,7.55
2023-01-26T14:28:12.801Z,7.97
2023-01-26T14:30:40.631Z,8.25
2023-01-26T14:33:16.103Z,9.30
2023-01-26T14:35:54.778Z,7.47
2023-01-26T14:38:21.817Z,9.93
2023-01-26T14:40:59.916Z,8.00
2023-01-26T14:43:27.813Z,9.38
2023-01-26T14:46:08.724Z,7.97
2023-01-26T14:48:55.085Z,7.53
2023-01-26T14:51:24.537Z,8.40
2023-01-26T14:53:58.626Z,7.88
2023-01-26T14:56:38.332Z,8.00
2023-01-26T14:59:07.387Z,9.27
2023-01-26T15:01:34.852Z,7.57
2023-01-26T15:04:06.532Z,7.43
2023-01-26T15:06:33.501Z,8.93
2023-01-26T15:09:27.066Z,7.15
2023-01-26T15:12:15.219Z,6.75
2023-01-26T15:14:57.018Z,7.78
2023-01-26T15:17:38.104Z,9.07
2023-01-26T15:20:23.209Z,7.30
2023-01-26T15:22:52.918Z,9.20
2023-01-26T15:25:26.009Z,8.60
2023-01-26T15:27:58.744Z,7.57
2023-01-26T15:30:35.529Z,8.23
2023-01-26T15:33:03.339Z,10.35
2023-01-26T15:35:32.584Z,8.82
2023-01-26T15:38:01.440Z,6.60
2023-01-26T15:40:28.689Z,8.52
2023-01-26T15:43:15.793Z,8.32
2023-01-26T15:45:51.953Z,7.30
2023-01-26T15:48:18.916Z,7.18
2023-01-26T15:50:48.058Z,7.25
2023-01-26T15:53:17.113Z,8.65
2023-01-26T15:55:44.871Z,9.25
2023-01-26T15:58:11.686Z,6.78
2023-01-26T16:00:39.265Z,7.72
2023-01-26T16:03:14.807Z,6.45
2023-01-26T16:05:42.183Z,9.63
2023-01-26T16:08:10.305Z,7.22
2023-01-26T16:10:40.110Z,9.18
2023-01-26T16:13:11.408Z,9.18
2023-01-26T16:15:55.212Z,7.57
2023-01-26T16:18:22.056Z,6.93
2023-01-26T16:20:50.046Z,7.38
2023-01-26T16:23:21.091Z,8.20
2023-01-26T16:25:49.266Z,7.97
2023-01-26T16:28:16.915Z,9.02
2023-01-26T16:30:45.644Z,7.55
2023-01-26T16:33:17.975Z,6.60
2023-01-26T16:35:44.792Z,9.23
2023-01-26T16:38:14.370Z,7.82
2023-01-26T16:40:43.746Z,9.30
2023-01-26T16:43:24.069Z,8.20
2023-01-26T16:45:52.829Z,8.00
2023-01-26T16:48:20.191Z,11.13
2023-01-26T16:50:50.324Z,8.23
2023-01-26T16:53:25.468Z,9.15
2023-01-26T16:55:52.857Z,8.03
2023-01-26T16:58:20.178Z,6.90
2023-01-26T17:00:47.319Z,7.13
2023-01-26T17:03:14.370Z,8.85
2023-01-26T17:05:41.729Z,10.00
2023-01-26T17:08:08.666Z,8.82
2023-01-26T17:10:35.886Z,8.90
2023-01-26T17:13:03.053Z,9.05
2023-01-26T17:15:30.022Z,11.55
2023-01-26T17:17:57.325Z,9.25
2023-01-26T17:20:24.118Z,8.10
2023-01-26T17:22:51.670Z,9.10
2023-01-26T17:25:19.540Z,8.38
2023-01-26T17:27:49.732Z,9.88
2023-01-26T17:30:18.351Z,7.90
2023-01-26T17:32:45.502Z,8.95
2023-01-26T17:35:12.837Z,9.27
2023-01-26T17:37:40.480Z,9.10
2023-01-26T17:40:09.794Z,9.80
2023-01-26T17:42:36.933Z,9.38
2023-01-26T17:45:04.796Z,12.52
2023-01-26T17:47:33.692Z,13.93
2023-01-26T17:50:01.217Z,12.10
2023-01-26T17:52:28.021Z,10.13
2023-01-26T17:54:54.849Z,12.82
2023-01-26T17:57:21.818Z,13.32
2023-01-26T17:59:48.769Z,16.30
2023-01-26T18:02:15.885Z,12.27
2023-01-26T18:04:42.927Z,14.70
2023-01-26T18:07:10.383Z,16.50
2023-01-26T18:09:37.429Z,11.40
2023-01-26T18:12:04.494Z,14.93
2023-01-26T18:14:31.309Z,12.68
2023-01-26T18:16:58.495Z,12.68
2023-01-26T18:19:25.949Z,14.57
2023-01-26T18:21:52.839Z,13.25
2023-01-26T18:24:19.769Z,12.13
2023-01-26T18:26:46.738Z,14.73
2023-01-26T18:29:14.830Z,16.35
2023-01-26T18:31:41.802Z,13.77
2023-01-26T18:34:10.325Z,11.00
2023-01-26T18:36:37.539Z,14.30
2023-01-26T18:39:06.919Z,12.02
2023-01-26T18:41:35.159Z,14.13
2023-01-26T18:44:03.738Z,13.98
2023-01-26T18:46:31.354Z,17.38
2023-01-26T18:49:02.924Z,12.88
2023-01-26T18:51:35.354Z,11.05
2023-01-26T18:54:04.264Z,16.13
2023-01-26T18:56:32.138Z,13.60
2023-01-26T18:58:59.332Z,13.05
2023-01-26T19:01:26.814Z,14.35
2023-01-26T19:03:55.577Z,14.60
2023-01-26T19:06:25.008Z,13.13
2023-01-26T19:09:01.529Z,14.60
2023-01-26T19:11:31.267Z,14.93
2023-01-26T19:13:58.890Z,11.57
2023-01-26T19:16:26.409Z,13.55
2023-01-26T19:18:54.379Z,13.02
2023-01-26T19:21:24.550Z,19.25
2023-01-26T19:23:53.237Z,14.70
2023-01-26T19:26:23.594Z,15.07
2023-01-26T19:28:51.190Z,17.95
2023-01-26T19:31:20.269Z,14.63
2023-01-26T19:33:58.868Z,11.68
2023-01-26T19:36:28.028Z,23.23
2023-01-26T19:38:55.029Z,19.75
2023-01-26T19:41:23.237Z,15.70
2023-01-26T19:43:51.543Z,14.23
2023-01-26T19:46:21.038Z,19.48
2023-01-26T19:48:48.432Z,16.02
2023-01-26T19:51:18.004Z,16.75
2023-01-26T19:53:47.374Z,14.07
2023-01-26T19:56:23.850Z,13.32
2023-01-26T19:58:52.571Z,21.77
2023-01-26T20:01:21.067Z,15.18
2023-01-26T20:03:53.156Z,15.18
2023-01-26T20:06:22.675Z,18.63
2023-01-26T20:08:50.168Z,19.40
2023-01-26T20:11:17.818Z,17.45
2023-01-26T20:13:44.602Z,14.55
2023-01-26T20:16:13.743Z,18.75
2023-01-26T20:18:40.893Z,16.73
2023-01-26T20:21:08.198Z,17.73
2023-01-26T20:23:36.642Z,17.75
2023-01-26T20:26:06.643Z,16.90
2023-01-26T20:28:33.648Z,21.92
2023-01-26T20:31:15.640Z,16.10
2023-01-26T20:33:44.278Z,16.83
2023-01-26T20:36:12.897Z,19.95
2023-01-26T20:38:39.866Z,15.35
2023-01-26T20:41:12.863Z,15.85
2023-01-26T20:43:49.458Z,20.88
2023-01-26T20:46:24.516Z,13.30
2023-01-26T20:48:51.882Z,14.55
2023-01-26T20:51:21.587Z,15.25
2023-01-26T20:53:49.842Z,15.75
2023-01-26T20:56:19.559Z,16.55
2023-01-26T20:58:46.405Z,20.05
2023-01-26T21:01:15.870Z,16.77
2023-01-26T21:03:43.625Z,17.33
2023-01-26T21:06:13.292Z,14.55
2023-01-26T21:08:40.987Z,17.90
2023-01-26T21:11:12.120Z,13.55
2023-01-26T21:13:42.510Z,14.43
2023-01-26T21:16:12.217Z,15.70
2023-01-26T21:18:39.121Z,16.83
2023-01-26T21:21:07.735Z,13.77
2023-01-26T21:23:35.077Z,13.90
2023-01-26T21:26:10.378Z,13.80
2023-01-26T21:28:37.353Z,16.10
2023-01-26T21:31:13.840Z,13.40
2023-01-26T21:33:42.980Z,22.23
2023-01-26T21:36:12.691Z,14.43
2023-01-26T21:38:41.775Z,14.35
2023-01-26T21:41:33.778Z,15.25
2023-01-26T21:44:11.538Z,16.25
2023-01-26T21:46:39.025Z,17.75
2023-01-26T21:49:06.542Z,12.75
2023-01-26T21:51:52.265Z,16.85
2023-01-26T21:54:19.294Z,13.32
2023-01-26T21:56:46.264Z,13.88
2023-01-26T21:59:15.120Z,14.68
2023-01-26T22:01:44.840Z,14.90
2023-01-26T22:04:23.519Z,12.52
2023-01-26T22:06:52.055Z,17.13
2023-01-26T22:09:19.366Z,15.45
2023-01-26T22:11:46.231Z,15.07
2023-01-26T22:14:22.340Z,14.30
2023-01-26T22:19:16.239Z,12.20
2023-01-26T22:21:43.090Z,14.40
2023-01-26T22:24:12.373Z,14.48
2023-01-26T22:26:39.827Z,12.77
2023-01-26T22:29:07.286Z,15.13
2023-01-26T22:31:34.375Z,17.38
2023-01-26T22:34:01.403Z,13.15
2023-01-26T22:36:28.894Z,12.52
2023-01-26T22:38:56.179Z,14.05
2023-01-26T22:41:25.664Z,13.93
2023-01-26T22:43:55.212Z,16.15
2023-01-26T22:46:23.756Z,15.68
2023-01-26T22:48:51.542Z,16.55
2023-01-26T22:51:21.348Z,15.27
2023-01-26T22:53:50.375Z,14.73
2023-01-26T22:56:18.281Z,15.40
2023-01-26T22:58:57.509Z,14.32
2023-01-26T23:01:26.914Z,15.52
2023-01-26T23:03:55.561Z,13.77
2023-01-26T23:06:23.162Z,14.25
2023-01-26T23:08:50.190Z,18.80
2023-01-26T23:11:22.937Z,16.40
2023-01-26T23:13:51.368Z,14.23
2023-01-26T23:16:19.203Z,15.88
2023-01-26T23:18:46.363Z,16.85
2023-01-26T23:21:13.240Z,18.73
2023-01-26T23:23:41.122Z,19.02
2023-01-26T23:26:08.739Z,17.00
2023-01-26T23:28:38.046Z,16.77
2023-01-26T23:31:05.577Z,17.27
2023-01-26T23:33:34.717Z,19.13
2023-01-26T23:36:02.223Z,15.77
2023-01-26T23:38:29.982Z,18.48
2023-01-26T23:40:57.709Z,13.25
2023-01-26T23:43:24.824Z,13.63
2023-01-26T23:45:52.543Z,15.05
2023-01-26T23:48:19.827Z,14.85
2023-01-26T23:50:46.959Z,13.15
2023-01-26T23:53:14.684Z,15.10
2023-01-26T23:55:42.965Z,13.13
2023-01-26T23:58:11.287Z,17.67
